createdAt,value
2023-02-03T00:03:58.738Z,0.90
2023-02-03T00:10:01.304Z,0.90
2023-02-03T00:16:03.769Z,0.90
2023-02-03T00:22:06.022Z,0.80
2023-02-03T00:28:08.198Z,0.80
2023-02-03T00:34:10.932Z,0.80
2023-02-03T00:40:15.278Z,0.80
2023-02-03T00:46:17.557Z,0.80
2023-02-03T00:52:19.819Z,0.80
2023-02-03T00:58:22.018Z,0.60
2023-02-03T01:04:24.469Z,0.60
2023-02-03T01:10:26.758Z,0.60
2023-02-03T01:16:31.221Z,0.60
2023-02-03T01:22:33.372Z,0.60
2023-02-03T01:28:36.190Z,0.50
2023-02-03T01:34:38.533Z,0.60
2023-02-03T01:40:45.110Z,0.60
2023-02-03T01:46:51.300Z,0.60
2023-02-03T01:52:58.608Z,0.50
2023-02-03T01:59:01.267Z,0.50
2023-02-03T02:05:21.832Z,0.30
2023-02-03T02:11:24.393Z,0.20
2023-02-03T02:17:44.841Z,0.10
2023-02-03T02:24:04.301Z,0.10
2023-02-03T02:30:12.534Z,0.00
2023-02-03T02:36:18.675Z,0.10
2023-02-03T02:42:39.078Z,0.20
2023-02-03T02:48:54.945Z,0.40
2023-02-03T02:55:02.932Z,0.50
2023-02-03T03:01:09.280Z,0.60
2023-02-03T03:07:24.497Z,0.60
2023-02-03T03:13:34.624Z,0.60
2023-02-03T03:19:41.586Z,0.60
2023-02-03T03:25:49.617Z,0.70
2023-02-03T03:31:51.847Z,0.70
2023-02-03T03:38:00.765Z,0.90
2023-02-03T03:44:06.273Z,0.90
2023-02-03T03:50:14.819Z,1.00
2023-02-03T03:56:25.037Z,1.00
2023-02-03T04:02:28.640Z,1.10
2023-02-03T04:08:30.755Z,1.20
2023-02-03T04:14:38.229Z,1.30
2023-02-03T04:20:40.748Z,1.30
2023-02-03T04:26:42.850Z,1.50
2023-02-03T04:32:46.466Z,1.50
2023-02-03T04:38:52.246Z,1.60
2023-02-03T04:44:54.480Z,1.70
2023-02-03T04:51:01.075Z,1.70
2023-02-03T04:57:03.728Z,1.80
2023-02-03T05:03:06.036Z,1.80
2023-02-03T05:09:08.424Z,1.70
2023-02-03T05:15:10.869Z,1.80
2023-02-03T05:21:13.088Z,1.70
2023-02-03T05:27:15.549Z,1.60
2023-02-03T05:33:17.583Z,1.50
2023-02-03T05:39:19.908Z,1.50
2023-02-03T05:45:22.151Z,1.50
2023-02-03T05:51:25.460Z,1.40
2023-02-03T05:57:27.893Z,1.40
2023-02-03T06:03:30.186Z,1.50
2023-02-03T06:09:32.516Z,1.50
2023-02-03T06:15:35.264Z,1.70
2023-02-03T06:21:37.627Z,1.80
2023-02-03T06:27:39.824Z,2.10
2023-02-03T06:33:42.138Z,2.30
2023-02-03T06:39:44.929Z,2.40
2023-02-03T06:45:47.745Z,2.60
2023-02-03T06:51:50.410Z,2.70
2023-02-03T06:57:52.655Z,3.10
2023-02-03T07:03:58.052Z,3.60
2023-02-03T07:10:01.449Z,3.90
2023-02-03T07:16:03.753Z,4.20
2023-02-03T07:22:06.187Z,4.40
2023-02-03T07:28:08.770Z,4.60
2023-02-03T07:34:10.965Z,4.90
2023-02-03T07:40:14.385Z,5.40
2023-02-03T07:46:17.046Z,5.20
2023-02-03T07:52:21.759Z,5.30
2023-02-03T07:58:24.162Z,6.10
2023-02-03T08:04:30.018Z,6.60
2023-02-03T08:10:32.039Z,6.20
2023-02-03T08:16:34.766Z,6.60
2023-02-03T08:22:36.734Z,7.30
2023-02-03T08:28:38.952Z,8.50
2023-02-03T08:34:41.297Z,8.00
2023-02-03T08:40:43.860Z,7.70
2023-02-03T08:46:49.818Z,7.90
2023-02-03T08:52:52.317Z,7.60
2023-02-03T08:58:55.982Z,8.60
2023-02-03T09:04:58.517Z,10.30
2023-02-03T09:11:00.978Z,10.60
2023-02-03T09:17:04.897Z,10.70
2023-02-03T09:23:07.205Z,10.10
2023-02-03T09:29:09.821Z,10.10
2023-02-03T09:35:12.197Z,9.80
2023-02-03T09:41:34.515Z,9.50
2023-02-03T09:47:43.900Z,9.20
2023-02-03T09:53:51.814Z,9.00
2023-02-03T09:59:56.904Z,8.60
2023-02-03T10:06:14.341Z,8.60
2023-02-03T10:12:45.473Z,8.40
2023-02-03T10:18:54.964Z,8.10
2023-02-03T10:24:57.369Z,7.90
2023-02-03T10:31:02.003Z,7.80
2023-02-03T10:37:23.121Z,7.90
2023-02-03T10:43:44.316Z,8.30
2023-02-03T10:49:47.211Z,8.50
2023-02-03T10:56:03.036Z,8.70
2023-02-03T11:02:10.610Z,8.30
2023-02-03T11:08:16.630Z,8.70
2023-02-03T11:14:19.357Z,8.90
2023-02-03T11:20:22.601Z,9.30
2023-02-03T11:26:44.018Z,9.60
2023-02-03T11:32:48.138Z,9.70
2023-02-03T11:38:50.613Z,10.10
2023-02-03T11:45:08.232Z,10.60
2023-02-03T11:51:22.653Z,11.20
2023-02-03T11:57:51.451Z,12.50
2023-02-03T12:04:18.472Z,19.30
2023-02-03T12:10:30.913Z,20.80
2023-02-03T12:16:56.276Z,22.20
2023-02-03T12:23:23.717Z,20.70
2023-02-03T12:29:39.058Z,17.60
2023-02-03T12:35:56.319Z,15.90
2023-02-03T12:42:05.117Z,16.90
2023-02-03T12:48:16.962Z,14.00
2023-02-03T12:54:34.002Z,15.60
2023-02-03T13:00:41.972Z,12.20
2023-02-03T13:07:02.750Z,11.30
2023-02-03T13:13:07.942Z,11.00
2023-02-03T13:19:21.589Z,8.90
2023-02-03T13:25:26.359Z,8.80
2023-02-03T13:31:43.605Z,8.50
2023-02-03T13:37:59.309Z,8.40
2023-02-03T13:44:02.259Z,8.10
2023-02-03T13:50:36.886Z,8.10
2023-02-03T13:56:39.860Z,8.00
2023-02-03T14:02:53.874Z,7.90
2023-02-03T14:09:00.160Z,7.60
2023-02-03T14:15:18.034Z,7.50
2023-02-03T14:21:23.884Z,7.20
2023-02-03T14:27:28.888Z,6.90
2023-02-03T14:33:49.045Z,6.80
2023-02-03T14:40:22.515Z,6.70
2023-02-03T14:46:59.432Z,6.50
2023-02-03T14:53:13.291Z,6.30
2023-02-03T14:59:16.010Z,6.20
2023-02-03T15:05:18.656Z,6.10
2023-02-03T15:11:29.882Z,5.90
2023-02-03T15:17:32.015Z,5.80
2023-02-03T15:23:43.486Z,5.60
2023-02-03T15:29:45.801Z,5.60
2023-02-03T15:35:55.875Z,5.50
2023-02-03T15:41:59.709Z,5.40
2023-02-03T15:48:01.995Z,5.30
2023-02-03T15:54:30.710Z,5.00
2023-02-03T16:00:39.421Z,4.80
2023-02-03T16:06:45.407Z,4.70
2023-02-03T16:12:47.601Z,4.50
2023-02-03T16:18:56.414Z,4.50
2023-02-03T16:25:12.836Z,4.50
2023-02-03T16:31:39.579Z,4.50
2023-02-03T16:38:04.089Z,4.50
2023-02-03T16:44:24.920Z,4.50
2023-02-03T16:50:46.788Z,4.40
2023-02-03T16:56:49.777Z,4.30
2023-02-03T17:02:52.275Z,4.20
2023-02-03T17:08:56.644Z,4.10
2023-02-03T17:15:00.378Z,4.10
2023-02-03T17:21:08.270Z,4.00
2023-02-03T17:27:10.522Z,4.00
2023-02-03T17:33:12.957Z,3.80
2023-02-03T17:58:04.308Z,3.20
2023-02-03T18:04:09.033Z,3.10
2023-02-03T18:10:11.784Z,3.00
2023-02-03T18:16:18.156Z,3.00
2023-02-03T18:22:21.421Z,2.90
2023-02-03T18:28:24.071Z,2.80
2023-02-03T18:34:26.258Z,2.80
2023-02-03T18:40:28.534Z,2.80
2023-02-03T18:46:32.845Z,2.70
2023-02-03T18:52:35.283Z,2.60
2023-02-03T18:58:38.273Z,2.50
2023-02-03T19:04:40.734Z,2.50
2023-02-03T19:10:42.840Z,2.40
2023-02-03T19:16:45.015Z,2.30
2023-02-03T19:22:47.184Z,2.30
2023-02-03T19:28:49.518Z,2.30
2023-02-03T19:34:51.750Z,2.30
2023-02-03T19:40:54.029Z,2.20
2023-02-03T19:46:56.171Z,2.20
2023-02-03T19:52:58.269Z,2.20
2023-02-03T19:59:00.640Z,2.10
2023-02-03T20:05:02.850Z,2.20
2023-02-03T20:11:05.641Z,2.20
2023-02-03T20:17:08.149Z,2.10
2023-02-03T20:23:10.264Z,2.10
2023-02-03T20:29:12.547Z,2.00
2023-02-03T20:35:15.118Z,2.10
2023-02-03T20:41:18.108Z,2.10
2023-02-03T20:47:22.935Z,2.10
2023-02-03T20:53:26.635Z,2.10
2023-02-03T20:59:29.557Z,2.10
2023-02-03T21:05:42.365Z,2.20
2023-02-03T21:11:44.449Z,2.30
2023-02-03T21:17:47.073Z,2.20
2023-02-03T21:23:49.251Z,2.30
2023-02-03T21:29:56.001Z,2.30
2023-02-03T21:35:58.439Z,2.20
2023-02-03T21:42:19.568Z,2.20
2023-02-03T21:48:40.658Z,2.10
2023-02-03T21:54:44.566Z,2.10
2023-02-03T22:00:50.564Z,2.00
2023-02-03T22:06:54.638Z,2.00
2023-02-03T22:12:56.927Z,1.90
2023-02-03T22:18:59.314Z,2.00
2023-02-03T22:25:01.648Z,1.90
2023-02-03T22:31:05.442Z,1.90
2023-02-03T22:37:07.737Z,1.90
2023-02-03T22:43:10.070Z,1.80
2023-02-03T22:49:12.378Z,1.90
2023-02-03T22:55:14.702Z,1.90
2023-02-03T23:01:17.000Z,1.80
2023-02-03T23:07:19.552Z,1.90
2023-02-03T23:13:22.041Z,1.80
2023-02-03T23:19:25.199Z,1.80
2023-02-03T23:25:27.537Z,1.80
2023-02-03T23:31:30.186Z,1.80
2023-02-03T23:37:32.533Z,1.80
2023-02-03T23:43:34.883Z,1.90
2023-02-03T23:49:37.232Z,1.90
2023-02-03T23:55:39.661Z,1.90
